Time;durP1;ratioP1;P1;durP2;ratioP2;P2;SDS_P1;SDS_P2;PMS_P1;PMS_P2;Temp;Humidity;BMP_temperature;BMP_pressure;BME280_temperature;BME280_humidity;BME280_pressure;Samples;Min_cycle;Max_cycle;Signal;HPM_P1;HPM_P2
2022/01/12 00:01:37;;;;;;;41.17;22.50;;;21.40;94.30;;;;;;4201995;28;20297;-68
2022/01/12 00:03:43;;;;;;;40.25;22.33;;;21.30;94.30;;;;;;4197575;28;20449;-67
2022/01/12 00:05:47;;;;;;;37.75;23.48;;;21.30;94.30;;;;;;4199854;28;20039;-68
2022/01/12 00:07:52;;;;;;;38.67;20.85;;;21.30;94.30;;;;;;4197709;28;20061;-69
2022/01/12 00:09:56;;;;;;;34.40;18.95;;;21.30;94.30;;;;;;4199250;28;20568;-68
2022/01/12 00:12:00;;;;;;;33.50;18.15;;;21.30;94.40;;;;;;4199258;28;20051;-68
2022/01/12 00:14:05;;;;;;;29.27;17.20;;;21.30;94.40;;;;;;4202041;28;20059;-68
2022/01/12 00:16:10;;;;;;;32.33;15.68;;;21.40;94.40;;;;;;4200588;28;20616;-68
2022/01/12 00:18:14;;;;;;;36.75;17.65;;;21.10;94.90;;;;;;4196017;28;20440;-69
2022/01/12 00:20:19;;;;;;;37.13;18.85;;;21.10;95.10;;;;;;4197925;28;20592;-65
2022/01/12 00:22:23;;;;;;;32.42;17.02;;;21.20;94.90;;;;;;4198312;28;20041;-66
2022/01/12 00:24:40;;;;;;;27.25;16.45;;;21.30;94.60;;;;;;4204413;28;20336;-65
2022/01/12 00:33:41;;;;;;;28.90;19.40;;;21.30;94.70;;;;;;4203515;28;20046;-66
2022/01/12 00:35:47;;;;;;;37.83;23.33;;;21.40;94.60;;;;;;4210351;28;20117;-66
2022/01/12 00:37:52;;;;;;;33.20;23.30;;;21.50;94.40;;;;;;4192992;28;20096;-65
2022/01/12 00:39:58;;;;;;;32.58;20.45;;;21.50;94.40;;;;;;4196275;28;20044;-65
2022/01/12 00:42:03;;;;;;;21.55;15.60;;;21.50;94.40;;;;;;4196052;28;20744;-66
2022/01/12 00:44:09;;;;;;;20.17;13.30;;;21.20;94.70;;;;;;4198089;28;20049;-65
2022/01/12 00:46:14;;;;;;;16.75;10.82;;;21.20;95.00;;;;;;4190311;28;20040;-65
2022/01/12 00:48:19;;;;;;;16.77;10.05;;;21.30;94.60;;;;;;4195209;28;20055;-65
2022/01/12 00:50:25;;;;;;;15.82;9.90;;;21.50;94.40;;;;;;4194976;28;20150;-65
2022/01/12 00:52:33;;;;;;;17.75;9.82;;;21.50;94.50;;;;;;4195893;28;20433;-65
2022/01/12 00:54:38;;;;;;;16.50;9.27;;;21.40;94.80;;;;;;4198900;28;20434;-65
2022/01/12 00:56:42;;;;;;;15.02;9.10;;;21.30;94.60;;;;;;4196665;28;20538;-65
2022/01/12 00:58:47;;;;;;;16.75;9.65;;;21.30;94.50;;;;;;4195315;28;20618;-65
2022/01/12 01:00:53;;;;;;;17.02;10.18;;;21.40;94.40;;;;;;4196178;28;20063;-66
2022/01/12 01:02:58;;;;;;;19.00;10.45;;;21.50;94.30;;;;;;4196466;28;20064;-66
2022/01/12 01:05:03;;;;;;;16.52;10.57;;;21.40;94.20;;;;;;4196966;28;20045;-65
2022/01/12 01:07:08;;;;;;;19.35;12.43;;;21.50;94.10;;;;;;4193395;28;20209;-65
2022/01/12 01:09:13;;;;;;;31.55;13.35;;;21.60;94.00;;;;;;4195774;28;20051;-66
2022/01/12 01:11:19;;;;;;;22.35;11.45;;;21.70;93.80;;;;;;4195466;28;20076;-66
2022/01/12 01:13:27;;;;;;;21.35;11.63;;;21.80;93.60;;;;;;4196412;28;20110;-65
2022/01/12 01:27:09;;;;;;;17.67;10.45;;;22.00;93.20;;;;;;4196186;28;20088;-67
2022/01/12 01:29:13;;;;;;;14.98;9.80;;;22.00;93.20;;;;;;4196938;28;20110;-66
2022/01/12 01:31:20;;;;;;;15.90;9.57;;;22.00;93.10;;;;;;4193494;28;20049;-66
2022/01/12 01:33:27;;;;;;;21.13;10.88;;;21.90;93.20;;;;;;4195881;28;20053;-66
2022/01/12 01:35:34;;;;;;;20.55;10.85;;;21.80;93.30;;;;;;4211580;28;20087;-67
2022/01/12 01:37:41;;;;;;;16.58;10.10;;;21.90;93.10;;;;;;4185780;28;20097;-66
2022/01/12 01:39:47;;;;;;;12.85;9.48;;;22.00;93.10;;;;;;4201669;28;20044;-63
2022/01/12 01:42:01;;;;;;;18.67;10.20;;;22.00;92.80;;;;;;4201433;28;20040;-65
2022/01/12 01:53:19;;;;;;;13.82;9.43;;;22.20;92.50;;;;;;4193639;28;20044;-65
2022/01/12 01:55:24;;;;;;;13.73;9.48;;;22.20;92.50;;;;;;4192950;28;20533;-64
2022/01/12 01:57:28;;;;;;;14.98;8.77;;;22.20;92.60;;;;;;4193639;28;20127;-68
2022/01/12 01:59:33;;;;;;;15.85;9.18;;;22.30;92.40;;;;;;4178376;28;20439;-65
2022/01/12 02:01:38;;;;;;;13.88;7.85;;;22.30;92.50;;;;;;4178049;28;20076;-66
2022/01/12 02:03:43;;;;;;;12.43;7.85;;;22.40;92.30;;;;;;4194216;28;20033;-66
2022/01/12 02:05:48;;;;;;;11.00;7.50;;;22.50;92.10;;;;;;4192669;28;20040;-65
2022/01/12 02:07:56;;;;;;;11.32;7.50;;;22.50;92.00;;;;;;4194514;28;20514;-65
2022/01/12 02:10:04;;;;;;;13.70;7.80;;;22.60;91.80;;;;;;4194573;28;20388;-66
2022/01/12 02:12:28;;;;;;;15.02;7.00;;;22.70;91.70;;;;;;4193970;28;20475;-67
2022/01/12 02:14:33;;;;;;;15.27;7.85;;;22.70;91.60;;;;;;4194920;28;20044;-66
2022/01/12 02:16:50;;;;;;;12.32;7.93;;;22.80;91.40;;;;;;4192502;28;20507;-66
2022/01/12 02:19:29;;;;;;;11.70;7.30;;;22.80;91.30;;;;;;4194760;28;20453;-65
2022/01/12 02:41:55;;;;;;;12.20;6.88;;;23.00;90.90;;;;;;4202129;28;20040;-66
2022/01/12 02:51:10;;;;;;;9.13;5.95;;;23.40;90.50;;;;;;4217821;28;20043;-66
2022/01/12 02:55:32;;;;;;;10.45;6.45;;;23.50;90.20;;;;;;4201726;28;20048;-66
2022/01/12 02:57:37;;;;;;;11.70;5.93;;;23.60;90.20;;;;;;4201764;28;20085;-66
2022/01/12 03:04:25;;;;;;;10.93;6.78;;;23.60;90.00;;;;;;4198270;28;20048;-66
2022/01/12 03:06:34;;;;;;;9.82;6.88;;;23.70;90.00;;;;;;4195149;28;20032;-66
2022/01/12 03:08:44;;;;;;;10.93;6.50;;;23.70;89.80;;;;;;4194599;28;20526;-66
2022/01/12 03:10:49;;;;;;;8.95;6.75;;;23.70;89.90;;;;;;4194852;28;20047;-66
2022/01/12 03:12:54;;;;;;;12.82;6.57;;;23.80;89.00;;;;;;4193139;28;20075;-66
2022/01/12 03:14:58;;;;;;;9.90;6.22;;;23.60;89.50;;;;;;4195055;28;20090;-66
2022/01/12 03:17:03;;;;;;;8.43;6.60;;;23.60;89.50;;;;;;4194898;28;20135;-66
2022/01/12 03:19:08;;;;;;;11.30;6.55;;;23.60;89.40;;;;;;4192704;28;20044;-66
2022/01/12 03:21:12;;;;;;;12.63;7.22;;;23.70;89.00;;;;;;4193625;28;20407;-66
2022/01/12 03:23:17;;;;;;;12.48;7.00;;;23.70;88.80;;;;;;4193915;28;20068;-66
2022/01/12 03:25:21;;;;;;;12.68;7.05;;;23.80;88.50;;;;;;4195583;28;20043;-66
2022/01/12 03:27:29;;;;;;;8.80;6.60;;;23.90;88.30;;;;;;4207850;28;20044;-66
2022/01/12 03:29:34;;;;;;;12.90;6.60;;;24.00;88.70;;;;;;4204177;28;20073;-66
2022/01/12 03:31:39;;;;;;;13.20;7.30;;;24.00;88.70;;;;;;4193310;28;20044;-66
2022/01/12 03:36:12;;;;;;;9.48;6.82;;;24.10;88.10;;;;;;4193062;28;20128;-66
2022/01/12 03:38:21;;;;;;;11.77;6.97;;;24.10;88.10;;;;;;4192905;28;20074;-65
2022/01/12 03:40:27;;;;;;;13.75;7.80;;;24.10;87.70;;;;;;4191746;28;20494;-66
2022/01/12 03:42:32;;;;;;;9.80;7.20;;;24.10;87.80;;;;;;4193936;28;20052;-66
2022/01/12 03:44:36;;;;;;;17.25;7.45;;;24.00;87.30;;;;;;4187781;28;20341;-66
2022/01/12 03:46:47;;;;;;;9.43;5.88;;;24.00;88.00;;;;;;4192370;28;20036;-66
2022/01/12 03:48:52;;;;;;;8.60;6.03;;;24.00;87.10;;;;;;4192984;28;20044;-66
2022/01/12 03:50:58;;;;;;;8.80;5.60;;;24.10;87.40;;;;;;4191940;28;20048;-65
2022/01/12 03:53:03;;;;;;;9.07;5.45;;;24.20;87.80;;;;;;4193308;28;20087;-66
2022/01/12 03:55:08;;;;;;;10.10;5.57;;;24.30;87.50;;;;;;4190978;28;20526;-66
2022/01/12 03:57:12;;;;;;;6.97;5.15;;;24.40;87.30;;;;;;4195028;28;20052;-67
2022/01/12 03:59:17;;;;;;;7.82;4.97;;;24.40;87.10;;;;;;4198245;28;20491;-67
2022/01/12 04:01:21;;;;;;;10.73;5.40;;;24.50;86.70;;;;;;4202082;28;20044;-67
2022/01/12 04:03:28;;;;;;;9.10;5.68;;;24.60;86.90;;;;;;4194232;28;20044;-66
2022/01/12 04:09:58;;;;;;;7.72;5.35;;;24.70;86.90;;;;;;4204457;28;20276;-66
2022/01/12 04:12:02;;;;;;;7.93;5.03;;;24.70;86.60;;;;;;4203172;28;20048;-65
2022/01/12 04:14:07;;;;;;;7.30;5.18;;;24.80;86.50;;;;;;4203702;28;20037;-66
2022/01/12 04:16:13;;;;;;;6.50;5.32;;;24.80;86.90;;;;;;4202936;28;20127;-67
2022/01/12 04:18:17;;;;;;;9.23;5.32;;;24.90;87.30;;;;;;4201151;28;20123;-65
2022/01/12 04:20:22;;;;;;;12.98;5.45;;;25.00;86.60;;;;;;4202883;28;20040;-65
2022/01/12 04:24:44;;;;;;;7.63;5.82;;;25.00;85.60;;;;;;4199575;28;20690;-67
2022/01/12 04:26:49;;;;;;;12.10;6.78;;;25.00;85.40;;;;;;4205181;28;20056;-62
2022/01/12 04:28:54;;;;;;;14.20;5.90;;;25.00;85.10;;;;;;4202252;28;20045;-64
2022/01/12 04:30:58;;;;;;;12.32;7.80;;;25.00;86.70;;;;;;4200664;28;20082;-67
2022/01/12 04:33:05;;;;;;;15.50;8.95;;;25.10;87.00;;;;;;4201525;28;20051;-68
2022/01/12 04:35:13;;;;;;;17.17;8.77;;;25.20;86.40;;;;;;4201524;28;20053;-67
2022/01/12 04:37:18;;;;;;;13.27;8.65;;;25.30;85.90;;;;;;4197846;28;20049;-67
2022/01/12 04:39:24;;;;;;;11.50;8.02;;;25.40;85.50;;;;;;4209714;28;20461;-67
2022/01/12 04:41:30;;;;;;;17.35;8.70;;;25.40;85.50;;;;;;4198763;28;20033;-68
2022/01/12 04:43:36;;;;;;;11.10;7.78;;;25.40;84.40;;;;;;4226033;28;20111;-67
2022/01/12 04:48:01;;;;;;;12.35;6.93;;;25.30;84.40;;;;;;4203023;28;20051;-66
2022/01/12 04:50:06;;;;;;;7.82;6.30;;;25.30;84.60;;;;;;4203567;28;20102;-66
2022/01/12 04:52:11;;;;;;;11.30;6.53;;;25.40;85.00;;;;;;4204671;28;20544;-66
2022/01/12 04:54:15;;;;;;;12.25;7.05;;;25.40;84.30;;;;;;4202813;28;20707;-68
2022/01/12 04:56:21;;;;;;;9.93;6.20;;;25.40;84.60;;;;;;4201837;28;20414;-68
2022/01/12 04:58:27;;;;;;;11.82;6.75;;;25.50;84.90;;;;;;4197839;28;20044;-65
2022/01/12 05:00:33;;;;;;;12.07;7.20;;;25.60;84.60;;;;;;4204117;28;20155;-68
2022/01/12 05:07:42;;;;;;;16.08;8.65;;;25.80;84.80;;;;;;4194687;28;20072;-68
2022/01/12 05:14:09;;;;;;;12.00;8.00;;;26.00;84.30;;;;;;4200693;28;20079;-67
2022/01/12 05:16:15;;;;;;;11.50;7.22;;;25.90;83.40;;;;;;4202200;28;20056;-66
2022/01/12 05:18:20;;;;;;;15.30;8.35;;;26.00;82.80;;;;;;4203448;28;20104;-67
2022/01/12 05:20:28;;;;;;;24.05;8.70;;;26.00;83.10;;;;;;4202134;28;20131;-65
2022/01/12 05:22:33;;;;;;;16.65;8.77;;;26.00;83.30;;;;;;4202975;28;20090;-66
2022/01/12 05:24:41;;;;;;;11.05;7.70;;;26.10;83.30;;;;;;4202936;28;20410;-66
2022/01/12 05:27:03;;;;;;;14.23;8.32;;;26.20;83.20;;;;;;4219962;28;20043;-65
2022/01/12 05:29:08;;;;;;;14.23;8.05;;;26.20;83.30;;;;;;4203346;28;20098;-64
2022/01/12 05:31:13;;;;;;;16.02;8.40;;;26.30;83.00;;;;;;4203930;28;20056;-67
2022/01/12 05:33:18;;;;;;;14.35;7.10;;;26.30;83.10;;;;;;4202985;28;20136;-67
2022/01/12 05:35:24;;;;;;;7.25;5.88;;;26.30;82.20;;;;;;4202954;28;20147;-65
2022/01/12 05:37:29;;;;;;;7.90;5.70;;;26.40;81.90;;;;;;4200957;28;20036;-67
2022/01/12 05:39:34;;;;;;;10.50;5.80;;;26.40;82.10;;;;;;4202344;28;20095;-67
2022/01/12 05:41:58;;;;;;;12.38;5.93;;;26.40;81.90;;;;;;4201891;28;20555;-64
2022/01/12 05:44:06;;;;;;;10.30;5.70;;;26.40;82.40;;;;;;4202874;28;20051;-64
2022/01/12 05:46:14;;;;;;;14.30;5.68;;;26.40;82.70;;;;;;4202054;28;20055;-65
2022/01/12 05:50:24;;;;;;;10.27;5.45;;;26.60;82.50;;;;;;4202764;28;20140;-67
2022/01/12 05:52:30;;;;;;;12.48;5.78;;;26.60;82.10;;;;;;4195573;28;20506;-66
2022/01/12 05:54:35;;;;;;;10.85;5.78;;;26.70;81.80;;;;;;4197267;28;20390;-64
2022/01/12 05:56:40;;;;;;;12.38;5.93;;;26.70;81.50;;;;;;4196160;28;20507;-65
2022/01/12 05:58:44;;;;;;;10.63;6.00;;;26.80;81.20;;;;;;4193854;28;20103;-66
2022/01/12 06:00:49;;;;;;;8.63;5.72;;;26.80;80.90;;;;;;4201189;28;20051;-65
2022/01/12 06:02:54;;;;;;;12.90;5.75;;;26.90;80.90;;;;;;4200390;28;20048;-67
2022/01/12 06:04:59;;;;;;;9.20;5.82;;;26.90;81.00;;;;;;4193337;28;20036;-66
2022/01/12 06:07:04;;;;;;;14.25;6.30;;;26.90;80.90;;;;;;4194132;28;20052;-65
2022/01/12 06:09:08;;;;;;;8.27;6.00;;;27.00;80.20;;;;;;4194127;28;20036;-66
2022/01/12 06:11:13;;;;;;;12.00;6.50;;;26.90;80.50;;;;;;4194276;28;20052;-66
2022/01/12 06:13:18;;;;;;;11.98;6.45;;;26.90;80.70;;;;;;4194049;28;20037;-66
2022/01/12 06:15:25;;;;;;;8.25;5.97;;;27.00;81.00;;;;;;4195611;28;20155;-66
2022/01/12 06:17:30;;;;;;;10.95;6.00;;;27.00;81.20;;;;;;4193485;28;20049;-66
2022/01/12 06:19:34;;;;;;;10.35;6.13;;;27.00;81.50;;;;;;4194179;28;20041;-66
2022/01/12 06:21:51;;;;;;;8.90;5.78;;;27.00;80.70;;;;;;4195209;28;20510;-66
2022/01/12 06:24:02;;;;;;;12.07;5.63;;;27.10;80.60;;;;;;4193473;28;20425;-68
2022/01/12 06:26:06;;;;;;;9.85;5.43;;;27.10;81.00;;;;;;4199569;28;20110;-67
2022/01/12 06:28:24;;;;;;;10.18;5.60;;;27.20;80.40;;;;;;4201529;28;20502;-67
2022/01/12 06:32:33;;;;;;;9.20;6.13;;;27.20;79.30;;;;;;4194698;28;20049;-68
2022/01/12 06:34:38;;;;;;;10.60;5.95;;;27.20;78.90;;;;;;4192899;28;20314;-66
2022/01/12 06:36:43;;;;;;;9.70;5.97;;;27.20;78.40;;;;;;4193687;28;20222;-69
2022/01/12 06:38:47;;;;;;;10.27;5.57;;;27.20;79.00;;;;;;4194893;28;20051;-67
2022/01/12 06:40:51;;;;;;;8.48;5.18;;;27.20;79.40;;;;;;4195583;28;20122;-67
2022/01/12 06:42:56;;;;;;;8.98;5.30;;;27.30;79.00;;;;;;4193949;28;20045;-68
2022/01/12 06:45:01;;;;;;;8.15;5.10;;;27.30;79.20;;;;;;4193442;28;20128;-66
2022/01/12 06:47:06;;;;;;;7.05;5.03;;;27.40;79.20;;;;;;4195742;28;20592;-68
2022/01/12 06:49:11;;;;;;;8.63;5.60;;;27.40;79.10;;;;;;4187224;28;20592;-67
2022/01/12 06:51:16;;;;;;;9.25;5.28;;;27.50;78.70;;;;;;4202112;28;20051;-67
2022/01/12 06:53:21;;;;;;;10.52;5.78;;;27.50;78.20;;;;;;4201277;28;20196;-68
2022/01/12 06:55:26;;;;;;;9.93;5.78;;;27.60;78.40;;;;;;4200430;28;20593;-67
2022/01/12 06:57:31;;;;;;;9.40;5.70;;;27.50;78.20;;;;;;4200894;28;20085;-69
2022/01/12 06:59:36;;;;;;;7.60;5.65;;;27.60;78.20;;;;;;4201948;28;20040;-68
2022/01/12 07:01:41;;;;;;;7.90;5.65;;;27.60;78.10;;;;;;4201925;28;20049;-68
2022/01/12 07:03:49;;;;;;;9.77;6.82;;;27.60;76.20;;;;;;4198926;28;20079;-68
2022/01/12 07:05:53;;;;;;;8.38;6.43;;;27.50;77.20;;;;;;4200472;28;20055;-69
2022/01/12 07:07:59;;;;;;;9.85;6.05;;;27.50;76.90;;;;;;4217534;28;20501;-68
2022/01/12 07:10:09;;;;;;;8.90;5.88;;;27.50;77.20;;;;;;4199154;28;20042;-69
2022/01/12 07:12:16;;;;;;;9.02;5.78;;;27.60;77.60;;;;;;4200410;28;20158;-70
2022/01/12 07:14:23;;;;;;;8.27;6.13;;;27.70;77.90;;;;;;4201295;28;20201;-70
2022/01/12 07:16:28;;;;;;;10.07;6.00;;;27.70;77.20;;;;;;4201131;28;20044;-69
2022/01/12 07:18:33;;;;;;;8.60;5.80;;;27.70;77.20;;;;;;4202139;28;20048;-68
2022/01/12 07:20:38;;;;;;;7.57;5.45;;;27.80;77.20;;;;;;4200627;28;20060;-66
2022/01/12 07:22:42;;;;;;;12.27;6.63;;;27.80;77.20;;;;;;4198928;28;20056;-68
2022/01/12 07:24:47;;;;;;;11.52;6.32;;;27.80;76.30;;;;;;4198879;28;20386;-68
2022/01/12 07:26:56;;;;;;;9.10;6.25;;;27.90;76.70;;;;;;4194385;28;20128;-68
2022/01/12 07:29:00;;;;;;;10.50;6.40;;;27.80;76.50;;;;;;4202455;28;20056;-68
2022/01/12 07:31:04;;;;;;;12.25;6.32;;;27.90;76.70;;;;;;4203961;28;20053;-68
2022/01/12 07:33:09;;;;;;;10.82;6.35;;;27.90;76.60;;;;;;4192497;28;20534;-68
2022/01/12 07:35:14;;;;;;;7.78;6.00;;;27.90;76.40;;;;;;4194315;28;20110;-67
2022/01/12 07:37:18;;;;;;;10.15;5.97;;;27.90;75.10;;;;;;4202609;28;20055;-67
2022/01/12 07:39:23;;;;;;;9.80;5.38;;;27.90;75.20;;;;;;4202779;28;20094;-67
2022/01/12 07:41:29;;;;;;;7.50;6.07;;;27.90;75.00;;;;;;4203059;28;20066;-68
2022/01/12 07:43:34;;;;;;;10.27;6.03;;;27.90;75.10;;;;;;4203285;28;20052;-67
2022/01/12 07:45:38;;;;;;;8.93;6.78;;;28.00;75.30;;;;;;4204455;28;20040;-67
2022/01/12 07:47:43;;;;;;;8.32;6.28;;;28.00;75.40;;;;;;4202283;28;20043;-67
2022/01/12 07:49:47;;;;;;;10.77;5.85;;;28.00;75.50;;;;;;4195323;28;20044;-67
2022/01/12 07:51:51;;;;;;;8.70;6.20;;;28.10;75.00;;;;;;4193875;28;20060;-67
2022/01/12 07:53:56;;;;;;;9.55;6.15;;;28.10;75.00;;;;;;4194168;28;20045;-66
2022/01/12 07:56:01;;;;;;;7.55;5.90;;;28.10;75.20;;;;;;4203566;28;20055;-66
2022/01/12 07:58:05;;;;;;;10.25;6.75;;;28.10;75.20;;;;;;4204716;28;20055;-67
2022/01/12 08:00:10;;;;;;;11.77;6.53;;;28.10;75.50;;;;;;4192798;28;20084;-67
2022/01/12 08:02:15;;;;;;;10.38;6.55;;;28.20;75.10;;;;;;4201256;28;20371;-65
2022/01/12 08:04:20;;;;;;;11.95;7.15;;;28.20;74.80;;;;;;4198037;28;20155;-64
2022/01/12 08:06:25;;;;;;;12.57;7.38;;;28.20;74.80;;;;;;4194627;28;20394;-66
2022/01/12 08:08:30;;;;;;;13.48;8.98;;;28.20;75.20;;;;;;4194755;28;20045;-64
2022/01/12 08:10:34;;;;;;;13.93;9.35;;;28.20;75.40;;;;;;4194727;28;20052;-64
2022/01/12 08:12:41;;;;;;;10.65;8.32;;;28.20;75.50;;;;;;4195089;28;20045;-67
2022/01/12 08:14:45;;;;;;;12.13;8.13;;;28.20;75.70;;;;;;4193596;28;20470;-65
2022/01/12 08:16:50;;;;;;;11.65;7.47;;;28.20;75.30;;;;;;4195127;28;20079;-68
2022/01/12 08:18:56;;;;;;;10.90;7.55;;;28.20;75.80;;;;;;4193170;28;20047;-67
2022/01/12 08:21:03;;;;;;;14.95;7.18;;;28.20;76.00;;;;;;4194736;28;20135;-67
2022/01/12 08:23:08;;;;;;;12.82;7.32;;;28.20;75.90;;;;;;4194395;28;20128;-66
2022/01/12 08:25:12;;;;;;;11.38;7.32;;;28.20;75.80;;;;;;4192370;28;20486;-65
2022/01/12 08:27:16;;;;;;;11.88;7.40;;;28.30;75.30;;;;;;4194520;28;20429;-66
2022/01/12 08:29:22;;;;;;;15.20;7.55;;;28.20;75.20;;;;;;4194360;28;20049;-67
2022/01/12 08:31:29;;;;;;;13.38;6.93;;;28.20;75.20;;;;;;4194466;28;20056;-67
2022/01/12 08:33:34;;;;;;;11.30;7.00;;;28.20;75.30;;;;;;4194830;28;20052;-67
2022/01/12 08:35:39;;;;;;;12.45;7.38;;;28.30;75.10;;;;;;4194791;28;20102;-67
2022/01/12 08:37:44;;;;;;;10.68;7.50;;;28.30;75.10;;;;;;4187881;28;20036;-67
2022/01/12 08:39:48;;;;;;;13.75;7.32;;;28.20;74.90;;;;;;4191175;28;20070;-66
2022/01/12 08:41:52;;;;;;;11.25;7.35;;;28.30;75.10;;;;;;4194372;28;20044;-66
2022/01/12 08:44:08;;;;;;;12.25;7.25;;;28.20;74.40;;;;;;4195165;28;20453;-66
2022/01/12 08:46:13;;;;;;;13.63;7.88;;;28.30;75.00;;;;;;4197561;28;20111;-66
2022/01/12 08:48:18;;;;;;;11.82;7.95;;;28.30;74.90;;;;;;4197805;28;20462;-66
2022/01/12 08:50:22;;;;;;;11.88;7.03;;;28.30;74.90;;;;;;4197883;28;20537;-68
2022/01/12 08:52:30;;;;;;;11.27;7.55;;;28.30;73.30;;;;;;4197889;28;20059;-66
2022/01/12 08:54:35;;;;;;;14.63;7.18;;;28.20;73.80;;;;;;4197651;28;20052;-67
2022/01/12 08:56:39;;;;;;;26.50;8.77;;;28.20;72.20;;;;;;4197862;28;20390;-67
2022/01/12 08:58:46;;;;;;;26.65;8.50;;;28.20;72.70;;;;;;4197521;28;20083;-67
2022/01/12 09:00:51;;;;;;;36.08;9.20;;;28.20;73.00;;;;;;4197383;28;20510;-67
2022/01/12 09:02:55;;;;;;;64.22;12.32;;;28.10;72.80;;;;;;4197678;28;20050;-67
2022/01/12 09:05:00;;;;;;;58.50;11.43;;;28.10;72.70;;;;;;4197064;28;20128;-66
2022/01/12 09:07:04;;;;;;;50.20;11.68;;;28.10;72.60;;;;;;4195865;28;20033;-66
2022/01/12 09:09:08;;;;;;;42.45;11.23;;;28.10;72.70;;;;;;4196792;28;20045;-66
2022/01/12 09:11:14;;;;;;;16.65;8.80;;;28.10;72.70;;;;;;4197120;28;20052;-65
2022/01/12 09:13:18;;;;;;;21.00;8.50;;;28.10;72.90;;;;;;4197444;28;20426;-67
2022/01/12 09:15:25;;;;;;;14.20;8.43;;;28.10;73.10;;;;;;4197173;28;20148;-66
2022/01/12 09:17:30;;;;;;;12.77;8.30;;;28.20;72.70;;;;;;4197469;28;20059;-67
2022/01/12 09:19:38;;;;;;;15.35;8.95;;;28.20;73.10;;;;;;4197029;28;20036;-67
2022/01/12 09:21:42;;;;;;;15.35;8.40;;;28.20;73.10;;;;;;4196864;28;20048;-67
2022/01/12 09:23:49;;;;;;;17.00;9.55;;;28.20;73.10;;;;;;4196487;28;20048;-65
2022/01/12 09:25:53;;;;;;;13.75;9.82;;;28.20;72.90;;;;;;4197068;28;20094;-67
2022/01/12 09:28:01;;;;;;;13.98;9.20;;;28.20;73.00;;;;;;4196636;28;20094;-67
2022/01/12 09:30:07;;;;;;;13.68;9.05;;;28.20;73.10;;;;;;4196740;28;20442;-67
2022/01/12 09:32:12;;;;;;;13.05;8.98;;;28.20;72.60;;;;;;4194554;28;20049;-67
2022/01/12 09:34:16;;;;;;;16.88;9.95;;;28.20;73.00;;;;;;4196478;28;20053;-67
2022/01/12 09:36:20;;;;;;;17.00;9.73;;;28.10;73.10;;;;;;4196578;28;20088;-67
2022/01/12 09:38:25;;;;;;;14.38;9.18;;;28.10;72.90;;;;;;4196524;28;20048;-67
2022/01/12 09:40:29;;;;;;;16.67;8.38;;;28.10;73.10;;;;;;4192735;28;20281;-67
2022/01/12 09:42:34;;;;;;;16.40;8.95;;;28.10;72.00;;;;;;4194107;28;20051;-68
2022/01/12 09:44:44;;;;;;;19.83;10.18;;;28.10;71.70;;;;;;4193944;28;20048;-67
2022/01/12 09:46:48;;;;;;;16.05;9.05;;;28.00;70.80;;;;;;4196391;28;20047;-67
2022/01/12 09:48:56;;;;;;;12.57;7.82;;;28.00;70.90;;;;;;4196339;28;20395;-69
2022/01/12 09:51:04;;;;;;;12.77;8.30;;;28.00;71.60;;;;;;4194148;28;20052;-67
2022/01/12 09:53:08;;;;;;;14.60;8.77;;;28.00;71.50;;;;;;4196486;28;20442;-67
2022/01/12 09:55:12;;;;;;;15.05;8.70;;;28.00;71.40;;;;;;4190661;28;20469;-68
2022/01/12 09:57:17;;;;;;;11.77;8.00;;;27.90;71.70;;;;;;4190946;28;20045;-68
2022/01/12 09:59:22;;;;;;;14.40;7.72;;;27.90;71.90;;;;;;4196048;28;20518;-68
2022/01/12 10:01:39;;;;;;;14.18;8.38;;;27.90;72.00;;;;;;4196453;28;20052;-68
2022/01/12 10:03:44;;;;;;;18.10;8.68;;;27.90;72.20;;;;;;4194361;28;20070;-67
2022/01/12 10:05:49;;;;;;;19.48;10.27;;;27.90;72.20;;;;;;4196375;28;20036;-67
2022/01/12 10:07:53;;;;;;;24.55;10.02;;;27.90;72.80;;;;;;4196466;28;20044;-67
2022/01/12 10:10:17;;;;;;;20.10;11.70;;;27.90;73.50;;;;;;4195983;28;20040;-67
2022/01/12 10:12:22;;;;;;;20.73;13.10;;;27.90;73.40;;;;;;4194578;28;20041;-68
2022/01/12 10:14:43;;;;;;;27.25;12.98;;;27.90;73.70;;;;;;4193253;28;20047;-68
2022/01/12 10:17:06;;;;;;;18.05;11.68;;;27.80;73.70;;;;;;4195982;28;20048;-67
2022/01/12 10:19:10;;;;;;;19.60;11.63;;;27.80;74.00;;;;;;4194662;28;20049;-67
2022/01/12 10:21:12;;;;;;;19.23;11.18;;;27.80;74.20;;;;;;4195184;28;20040;-67
2022/01/12 10:23:20;;;;;;;28.45;12.23;;;27.80;74.40;;;;;;4194176;28;20127;-67
2022/01/12 10:25:26;;;;;;;31.17;12.15;;;27.80;74.70;;;;;;4194083;28;20585;-67
2022/01/12 10:27:30;;;;;;;30.83;12.50;;;27.70;74.80;;;;;;4195679;28;20041;-67
2022/01/12 10:29:34;;;;;;;36.60;13.02;;;27.70;74.80;;;;;;4164952;28;20037;-68
2022/01/12 10:31:50;;;;;;;21.17;12.15;;;27.60;74.90;;;;;;4160458;28;20033;-67
2022/01/12 10:34:03;;;;;;;23.00;12.32;;;27.70;75.10;;;;;;4169544;28;20053;-67
2022/01/12 10:36:07;;;;;;;25.65;12.82;;;27.60;75.20;;;;;;4159346;28;20400;-67
2022/01/12 10:38:16;;;;;;;17.60;12.55;;;27.60;75.50;;;;;;4151648;28;20140;-67
2022/01/12 10:40:20;;;;;;;21.50;12.75;;;27.60;75.90;;;;;;4162383;28;20061;-67
2022/01/12 10:42:26;;;;;;;19.73;11.63;;;27.50;76.20;;;;;;4165833;28;20081;-67
2022/01/12 10:44:36;;;;;;;24.15;11.48;;;27.50;76.70;;;;;;4160591;28;20140;-66
2022/01/12 10:46:40;;;;;;;29.92;11.50;;;27.40;77.10;;;;;;4170746;28;20410;-64
2022/01/12 10:48:45;;;;;;;27.55;10.77;;;27.40;77.40;;;;;;4175213;28;20435;-66
2022/01/12 10:50:56;;;;;;;26.75;11.23;;;27.30;77.60;;;;;;4159013;28;20121;-66
2022/01/12 10:53:01;;;;;;;51.50;11.93;;;27.30;77.90;;;;;;4162906;28;20082;-65
2022/01/12 10:55:07;;;;;;;51.83;14.90;;;27.20;79.00;;;;;;4160216;28;20136;-66
2022/01/12 10:57:32;;;;;;;56.40;14.20;;;27.10;79.50;;;;;;4165243;28;20049;-63
2022/01/12 10:59:37;;;;;;;51.80;14.00;;;27.10;80.00;;;;;;4162485;28;20795;-65
2022/01/12 11:01:42;;;;;;;48.60;13.23;;;27.10;80.20;;;;;;4198395;28;20044;-64
2022/01/12 11:03:48;;;;;;;35.17;13.45;;;27.00;80.50;;;;;;4211582;28;21901;-65
2022/01/12 11:05:54;;;;;;;32.30;13.27;;;27.00;80.70;;;;;;4200076;28;20036;-65
2022/01/12 11:07:59;;;;;;;35.00;14.50;;;26.90;81.10;;;;;;4200213;28;20047;-63
2022/01/12 11:10:06;;;;;;;35.47;15.38;;;26.90;81.50;;;;;;4184762;28;20096;-65
2022/01/12 11:12:10;;;;;;;44.47;17.75;;;26.90;81.70;;;;;;4192055;28;20087;-65
2022/01/12 11:14:14;;;;;;;39.17;15.85;;;26.90;82.00;;;;;;4191955;28;20037;-64
2022/01/12 11:16:23;;;;;;;34.05;17.15;;;26.80;82.10;;;;;;4192050;28;20063;-66
2022/01/12 11:18:30;;;;;;;36.63;15.77;;;26.80;82.20;;;;;;4188044;28;20052;-64
2022/01/12 11:20:34;;;;;;;42.22;16.92;;;26.80;82.30;;;;;;4190115;28;20048;-65
2022/01/12 11:22:42;;;;;;;47.83;21.08;;;26.70;82.80;;;;;;4192445;28;20070;-66
2022/01/12 11:24:46;;;;;;;53.67;25.40;;;26.70;83.00;;;;;;4188994;28;20082;-64
2022/01/12 11:26:52;;;;;;;47.85;22.02;;;26.60;83.00;;;;;;4192370;28;20098;-66
2022/01/12 11:28:57;;;;;;;48.88;23.15;;;26.60;83.30;;;;;;4192446;28;20059;-64
2022/01/12 11:31:02;;;;;;;50.50;23.90;;;26.60;83.50;;;;;;4192177;28;20044;-65
2022/01/12 11:33:09;;;;;;;50.55;24.17;;;26.60;83.60;;;;;;4190440;28;20036;-65
2022/01/12 11:35:13;;;;;;;47.80;24.92;;;26.50;83.60;;;;;;4192498;28;20040;-65
2022/01/12 11:37:18;;;;;;;47.67;26.95;;;26.50;83.90;;;;;;4173010;28;20539;-65
2022/01/12 11:39:23;;;;;;;49.30;27.75;;;26.50;84.00;;;;;;4173584;28;20049;-65
2022/01/12 11:41:29;;;;;;;52.05;27.88;;;26.40;84.20;;;;;;4168512;28;20124;-64
2022/01/12 11:43:40;;;;;;;49.90;27.77;;;26.40;84.40;;;;;;4171783;28;20043;-63
2022/01/12 11:45:45;;;;;;;56.15;29.30;;;26.40;84.50;;;;;;4156013;28;20647;-64
2022/01/12 11:47:51;;;;;;;63.53;32.72;;;26.40;84.40;;;;;;4172853;28;20523;-64
2022/01/12 11:49:55;;;;;;;71.53;33.47;;;26.40;84.40;;;;;;4172629;28;20060;-64
2022/01/12 11:52:00;;;;;;;68.90;33.67;;;26.40;84.30;;;;;;4169060;28;20680;-64
2022/01/12 11:54:18;;;;;;;63.65;33.88;;;26.30;84.20;;;;;;4169113;28;20521;-65
2022/01/12 11:56:24;;;;;;;73.53;33.90;;;26.30;84.40;;;;;;4171043;28;20596;-64
2022/01/12 11:58:29;;;;;;;64.40;32.42;;;26.30;84.50;;;;;;4169993;28;20399;-65
2022/01/12 12:00:33;;;;;;;66.50;31.73;;;26.20;84.70;;;;;;4170765;28;20574;-65
2022/01/12 12:02:39;;;;;;;60.13;31.15;;;26.20;85.00;;;;;;4115484;28;20494;-64
2022/01/12 12:04:58;;;;;;;73.55;31.45;;;26.20;85.10;;;;;;4115481;28;20042;-64
2022/01/12 12:07:12;;;;;;;60.55;31.67;;;26.10;85.50;;;;;;4112500;28;20074;-66
2022/01/12 12:09:22;;;;;;;66.15;29.98;;;26.10;86.00;;;;;;4158298;28;20041;-65
2022/01/12 12:11:28;;;;;;;60.40;30.50;;;26.10;86.10;;;;;;4164264;28;20156;-65
2022/01/12 12:13:32;;;;;;;55.85;29.05;;;26.10;86.30;;;;;;4148317;28;20496;-64
2022/01/12 12:15:36;;;;;;;62.13;30.58;;;26.00;86.40;;;;;;4163320;28;20544;-66